sensor_id;sensor_type;location;lat;lon;timestamp;pressure;altitude;pressure_sealevel;temperature;humidity
49723;BME280;43484;43.608;1.458;2023-07-28T00:01:55;99573.50;;;20.99;100.00
49723;BME280;43484;43.608;1.458;2023-07-28T00:04:22;99585.81;;;20.87;100.00
49723;BME280;43484;43.608;1.458;2023-07-28T00:06:49;99580.25;;;20.53;100.00
49723;BME280;43484;43.608;1.458;2023-07-28T00:09:16;99577.66;;;20.53;100.00
49723;BME280;43484;43.608;1.458;2023-07-28T00:11:42;99567.22;;;20.55;100.00
49723;BME280;43484;43.608;1.458;2023-07-28T00:14:09;99562.63;;;20.70;100.00
49723;BME280;43484;43.608;1.458;2023-07-28T00:16:35;99585.09;;;20.77;100.00
49723;BME280;43484;43.608;1.458;2023-07-28T00:19:03;99593.38;;;21.03;100.00
49723;BME280;43484;43.608;1.458;2023-07-28T00:21:30;99598.69;;;20.97;100.00
49723;BME280;43484;43.608;1.458;2023-07-28T00:23:56;99595.88;;;21.11;100.00
49723;BME280;43484;43.608;1.458;2023-07-28T00:26:23;99598.31;;;21.18;100.00
49723;BME280;43484;43.608;1.458;2023-07-28T00:28:50;99608.53;;;21.31;100.00
49723;BME280;43484;43.608;1.458;2023-07-28T00:31:16;99615.69;;;21.20;100.00
49723;BME280;43484;43.608;1.458;2023-07-28T00:33:43;99627.66;;;21.31;100.00
49723;BME280;43484;43.608;1.458;2023-07-28T00:36:09;99635.31;;;21.39;100.00
49723;BME280;43484;43.608;1.458;2023-07-28T00:38:36;99644.91;;;21.38;100.00
49723;BME280;43484;43.608;1.458;2023-07-28T00:41:03;99642.28;;;21.40;100.00
49723;BME280;43484;43.608;1.458;2023-07-28T00:43:30;99636.06;;;21.47;100.00
49723;BME280;43484;43.608;1.458;2023-07-28T00:45:56;99644.69;;;21.49;100.00
49723;BME280;43484;43.608;1.458;2023-07-28T00:48:23;99641.22;;;21.50;100.00
49723;BME280;43484;43.608;1.458;2023-07-28T00:50:52;99645.56;;;21.49;100.00
49723;BME280;43484;43.608;1.458;2023-07-28T00:53:22;99649.00;;;21.51;100.00
49723;BME280;43484;43.608;1.458;2023-07-28T00:55:50;99642.09;;;21.49;100.00
49723;BME280;43484;43.608;1.458;2023-07-28T00:58:18;99637.69;;;21.52;100.00
49723;BME280;43484;43.608;1.458;2023-07-28T01:00:45;99632.72;;;21.39;100.00
49723;BME280;43484;43.608;1.458;2023-07-28T01:03:11;99630.13;;;21.37;100.00
49723;BME280;43484;43.608;1.458;2023-07-28T01:10:42;99638.84;;;21.36;100.00
49723;BME280;43484;43.608;1.458;2023-07-28T01:13:09;99631.81;;;21.41;100.00
49723;BME280;43484;43.608;1.458;2023-07-28T01:15:36;99634.41;;;21.43;100.00
49723;BME280;43484;43.608;1.458;2023-07-28T01:18:03;99623.03;;;21.47;100.00
49723;BME280;43484;43.608;1.458;2023-07-28T01:20:31;99623.88;;;21.47;100.00
49723;BME280;43484;43.608;1.458;2023-07-28T01:25:53;99618.84;;;21.38;100.00
49723;BME280;43484;43.608;1.458;2023-07-28T01:28:22;99625.72;;;21.42;100.00
49723;BME280;43484;43.608;1.458;2023-07-28T01:30:49;99631.09;;;21.33;100.00
49723;BME280;43484;43.608;1.458;2023-07-28T01:33:15;99638.88;;;21.35;100.00
49723;BME280;43484;43.608;1.458;2023-07-28T01:35:42;99634.50;;;21.35;100.00
49723;BME280;43484;43.608;1.458;2023-07-28T01:38:08;99624.97;;;21.36;100.00
49723;BME280;43484;43.608;1.458;2023-07-28T01:40:35;99612.78;;;21.36;100.00
49723;BME280;43484;43.608;1.458;2023-07-28T01:43:02;99600.78;;;21.28;100.00
49723;BME280;43484;43.608;1.458;2023-07-28T01:45:29;99600.81;;;21.26;100.00
49723;BME280;43484;43.608;1.458;2023-07-28T01:47:55;99593.91;;;21.22;100.00
49723;BME280;43484;43.608;1.458;2023-07-28T01:50:22;99581.88;;;21.15;100.00
49723;BME280;43484;43.608;1.458;2023-07-28T01:52:49;99565.56;;;21.05;100.00
49723;BME280;43484;43.608;1.458;2023-07-28T01:55:16;99568.13;;;21.07;100.00
49723;BME280;43484;43.608;1.458;2023-07-28T01:57:54;99576.69;;;21.13;100.00
49723;BME280;43484;43.608;1.458;2023-07-28T02:00:21;99578.44;;;21.14;100.00
49723;BME280;43484;43.608;1.458;2023-07-28T02:02:48;99593.28;;;21.09;100.00
49723;BME280;43484;43.608;1.458;2023-07-28T02:05:15;99595.03;;;21.09;100.00
49723;BME280;43484;43.608;1.458;2023-07-28T02:07:42;99595.00;;;21.10;100.00
49723;BME280;43484;43.608;1.458;2023-07-28T02:10:09;99601.09;;;21.09;100.00
49723;BME280;43484;43.608;1.458;2023-07-28T02:12:37;99596.03;;;21.00;100.00
49723;BME280;43484;43.608;1.458;2023-07-28T02:15:05;99587.38;;;20.97;100.00
49723;BME280;43484;43.608;1.458;2023-07-28T02:17:32;99594.41;;;20.92;100.00
49723;BME280;43484;43.608;1.458;2023-07-28T02:19:59;99594.56;;;20.83;100.00
49723;BME280;43484;43.608;1.458;2023-07-28T02:22:26;99590.16;;;20.85;100.00
49723;BME280;43484;43.608;1.458;2023-07-28T02:24:53;99578.25;;;20.70;100.00
49723;BME280;43484;43.608;1.458;2023-07-28T02:27:19;99570.38;;;20.73;100.00
49723;BME280;43484;43.608;1.458;2023-07-28T02:29:46;99558.22;;;20.75;100.00
49723;BME280;43484;43.608;1.458;2023-07-28T02:32:12;99555.78;;;20.66;100.00
49723;BME280;43484;43.608;1.458;2023-07-28T02:34:39;99553.97;;;20.68;100.00
49723;BME280;43484;43.608;1.458;2023-07-28T02:37:05;99547.00;;;20.70;100.00
49723;BME280;43484;43.608;1.458;2023-07-28T02:39:32;99547.06;;;20.67;100.00
49723;BME280;43484;43.608;1.458;2023-07-28T02:41:59;99551.25;;;20.77;100.00
49723;BME280;43484;43.608;1.458;2023-07-28T02:44:25;99551.34;;;20.70;100.00
49723;BME280;43484;43.608;1.458;2023-07-28T02:46:52;99549.81;;;20.58;100.00
49723;BME280;43484;43.608;1.458;2023-07-28T02:49:19;99543.72;;;20.59;100.00
49723;BME280;43484;43.608;1.458;2023-07-28T02:51:45;99542.78;;;20.63;100.00
49723;BME280;43484;43.608;1.458;2023-07-28T02:54:12;99539.41;;;20.57;100.00
49723;BME280;43484;43.608;1.458;2023-07-28T02:56:38;99533.53;;;20.46;100.00
49723;BME280;43484;43.608;1.458;2023-07-28T02:59:05;99529.97;;;20.51;100.00
49723;BME280;43484;43.608;1.458;2023-07-28T03:01:32;99522.22;;;20.47;100.00
49723;BME280;43484;43.608;1.458;2023-07-28T03:04:00;99517.09;;;20.42;100.00
49723;BME280;43484;43.608;1.458;2023-07-28T03:06:27;99516.22;;;20.43;100.00
49723;BME280;43484;43.608;1.458;2023-07-28T03:08:54;99513.00;;;20.28;100.00
49723;BME280;43484;43.608;1.458;2023-07-28T03:11:21;99498.19;;;20.30;100.00
49723;BME280;43484;43.608;1.458;2023-07-28T03:13:47;99476.75;;;20.11;100.00
49723;BME280;43484;43.608;1.458;2023-07-28T03:16:14;99459.44;;;20.12;100.00
49723;BME280;43484;43.608;1.458;2023-07-28T03:18:40;99449.81;;;20.18;100.00
49723;BME280;43484;43.608;1.458;2023-07-28T03:21:08;99454.16;;;20.19;100.00
49723;BME280;43484;43.608;1.458;2023-07-28T03:23:35;99438.44;;;20.25;100.00
49723;BME280;43484;43.608;1.458;2023-07-28T03:26:02;99442.97;;;20.10;100.00
49723;BME280;43484;43.608;1.458;2023-07-28T03:28:28;99430.59;;;20.28;100.00
49723;BME280;43484;43.608;1.458;2023-07-28T03:30:55;99421.84;;;20.34;100.00
49723;BME280;43484;43.608;1.458;2023-07-28T03:33:21;99424.53;;;20.29;100.00
49723;BME280;43484;43.608;1.458;2023-07-28T03:35:48;99417.59;;;20.27;100.00
49723;BME280;43484;43.608;1.458;2023-07-28T03:38:15;99417.56;;;20.28;100.00
49723;BME280;43484;43.608;1.458;2023-07-28T03:40:41;99429.91;;;20.17;100.00
49723;BME280;43484;43.608;1.458;2023-07-28T03:43:10;99407.34;;;20.19;100.00
49723;BME280;43484;43.608;1.458;2023-07-28T03:45:36;99404.72;;;20.21;100.00
49723;BME280;43484;43.608;1.458;2023-07-28T03:48:03;99403.06;;;20.15;100.00
49723;BME280;43484;43.608;1.458;2023-07-28T03:50:30;99395.38;;;20.05;100.00
49723;BME280;43484;43.608;1.458;2023-07-28T03:52:57;99386.00;;;19.94;100.00
49723;BME280;43484;43.608;1.458;2023-07-28T03:55:23;99373.09;;;19.90;100.00
49723;BME280;43484;43.608;1.458;2023-07-28T03:57:50;99362.25;;;19.61;100.00
49723;BME280;43484;43.608;1.458;2023-07-28T04:00:16;99336.97;;;19.73;100.00
49723;BME280;43484;43.608;1.458;2023-07-28T04:02:43;99328.69;;;19.47;100.00
49723;BME280;43484;43.608;1.458;2023-07-28T04:05:10;99310.00;;;19.20;100.00
49723;BME280;43484;43.608;1.458;2023-07-28T04:07:37;99283.03;;;19.31;100.00
49723;BME280;43484;43.608;1.458;2023-07-28T04:10:04;99268.41;;;19.21;100.00
49723;BME280;43484;43.608;1.458;2023-07-28T04:12:31;99256.72;;;18.92;100.00
49723;BME280;43484;43.608;1.458;2023-07-28T04:14:57;99244.59;;;18.94;100.00
49723;BME280;43484;43.608;1.458;2023-07-28T04:17:25;99240.00;;;19.11;100.00
49723;BME280;43484;43.608;1.458;2023-07-28T04:19:51;99232.22;;;19.12;100.00
49723;BME280;43484;43.608;1.458;2023-07-28T04:22:18;99236.41;;;19.19;100.00
49723;BME280;43484;43.608;1.458;2023-07-28T04:24:47;99241.53;;;19.25;100.00
49723;BME280;43484;43.608;1.458;2023-07-28T04:27:14;99237.53;;;19.03;100.00
49723;BME280;43484;43.608;1.458;2023-07-28T04:29:41;99231.09;;;19.28;100.00
49723;BME280;43484;43.608;1.458;2023-07-28T04:32:08;99235.16;;;18.88;100.00
49723;BME280;43484;43.608;1.458;2023-07-28T04:34:35;99233.56;;;18.77;100.00
49723;BME280;43484;43.608;1.458;2023-07-28T04:37:01;99215.47;;;18.72;100.00
49723;BME280;43484;43.608;1.458;2023-07-28T04:39:28;99206.06;;;18.65;100.00
49723;BME280;43484;43.608;1.458;2023-07-28T04:41:54;99200.00;;;18.64;100.00
49723;BME280;43484;43.608;1.458;2023-07-28T04:44:21;99202.63;;;18.61;100.00
49723;BME280;43484;43.608;1.458;2023-07-28T04:46:48;99206.16;;;18.56;100.00
49723;BME280;43484;43.608;1.458;2023-07-28T04:49:14;99213.78;;;18.68;100.00
49723;BME280;43484;43.608;1.458;2023-07-28T04:51:41;99220.59;;;18.77;100.00
49723;BME280;43484;43.608;1.458;2023-07-28T04:54:07;99215.66;;;18.58;100.00
49723;BME280;43484;43.608;1.458;2023-07-28T04:56:35;99211.16;;;18.69;100.00
49723;BME280;43484;43.608;1.458;2023-07-28T04:59:01;99195.56;;;18.72;100.00
49723;BME280;43484;43.608;1.458;2023-07-28T05:01:28;99191.31;;;18.68;100.00
49723;BME280;43484;43.608;1.458;2023-07-28T05:03:55;99185.22;;;18.69;100.00
49723;BME280;43484;43.608;1.458;2023-07-28T05:06:22;99184.16;;;18.84;100.00
49723;BME280;43484;43.608;1.458;2023-07-28T05:08:48;99185.56;;;19.05;100.00
49723;BME280;43484;43.608;1.458;2023-07-28T05:11:15;99197.53;;;19.15;100.00
49723;BME280;43484;43.608;1.458;2023-07-28T05:13:42;99199.31;;;19.11;100.00
49723;BME280;43484;43.608;1.458;2023-07-28T05:16:08;99212.34;;;19.08;100.00
49723;BME280;43484;43.608;1.458;2023-07-28T05:18:35;99229.50;;;19.20;100.00
49723;BME280;43484;43.608;1.458;2023-07-28T05:21:01;99240.63;;;19.28;100.00
49723;BME280;43484;43.608;1.458;2023-07-28T05:23:28;99242.31;;;19.33;100.00
49723;BME280;43484;43.608;1.458;2023-07-28T05:25:54;99244.78;;;19.39;100.00
49723;BME280;43484;43.608;1.458;2023-07-28T05:28:21;99251.53;;;19.54;100.00
49723;BME280;43484;43.608;1.458;2023-07-28T05:30:48;99254.78;;;19.65;100.00
49723;BME280;43484;43.608;1.458;2023-07-28T05:33:14;99273.84;;;19.65;100.00
49723;BME280;43484;43.608;1.458;2023-07-28T05:35:42;99281.97;;;19.43;100.00
49723;BME280;43484;43.608;1.458;2023-07-28T05:38:08;99280.00;;;19.60;100.00
49723;BME280;43484;43.608;1.458;2023-07-28T05:40:35;99278.72;;;19.26;100.00
49723;BME280;43484;43.608;1.458;2023-07-28T05:43:01;99258.72;;;19.37;100.00
49723;BME280;43484;43.608;1.458;2023-07-28T05:45:29;99257.69;;;19.47;100.00
49723;BME280;43484;43.608;1.458;2023-07-28T05:47:55;99261.63;;;19.72;100.00
49723;BME280;43484;43.608;1.458;2023-07-28T05:50:22;99275.50;;;19.69;100.00
49723;BME280;43484;43.608;1.458;2023-07-28T05:52:49;99276.56;;;19.56;100.00
49723;BME280;43484;43.608;1.458;2023-07-28T05:55:15;99280.09;;;19.54;100.00
49723;BME280;43484;43.608;1.458;2023-07-28T05:57:42;99288.72;;;19.54;100.00
49723;BME280;43484;43.608;1.458;2023-07-28T06:00:10;99281.78;;;19.56;100.00
49723;BME280;43484;43.608;1.458;2023-07-28T06:02:37;99280.34;;;19.37;100.00
49723;BME280;43484;43.608;1.458;2023-07-28T06:05:04;99281.03;;;19.48;100.00
49723;BME280;43484;43.608;1.458;2023-07-28T06:07:31;99278.47;;;19.47;100.00
49723;BME280;43484;43.608;1.458;2023-07-28T06:09:57;99288.69;;;19.59;100.00
49723;BME280;43484;43.608;1.458;2023-07-28T06:12:24;99295.72;;;19.52;100.00
49723;BME280;43484;43.608;1.458;2023-07-28T06:14:50;99289.50;;;19.61;100.00
49723;BME280;43484;43.608;1.458;2023-07-28T06:17:17;99298.66;;;19.83;100.00
49723;BME280;43484;43.608;1.458;2023-07-28T06:19:44;99311.59;;;19.89;100.00
49723;BME280;43484;43.608;1.458;2023-07-28T06:22:12;99317.91;;;19.73;100.00
49723;BME280;43484;43.608;1.458;2023-07-28T06:24:38;99322.03;;;19.84;100.00
49723;BME280;43484;43.608;1.458;2023-07-28T06:27:05;99336.72;;;19.88;100.00
49723;BME280;43484;43.608;1.458;2023-07-28T06:29:34;99348.72;;;19.97;100.00
49723;BME280;43484;43.608;1.458;2023-07-28T06:32:01;99356.25;;;20.15;100.00
49723;BME280;43484;43.608;1.458;2023-07-28T06:34:28;99378.28;;;20.43;100.00
49723;BME280;43484;43.608;1.458;2023-07-28T06:36:54;99400.69;;;20.52;100.00
49723;BME280;43484;43.608;1.458;2023-07-28T06:39:21;99420.06;;;20.36;100.00
49723;BME280;43484;43.608;1.458;2023-07-28T06:41:48;99424.97;;;20.54;100.00
49723;BME280;43484;43.608;1.458;2023-07-28T06:44:14;99438.13;;;20.45;100.00
49723;BME280;43484;43.608;1.458;2023-07-28T06:46:41;99426.94;;;20.40;100.00
49723;BME280;43484;43.608;1.458;2023-07-28T06:49:11;99437.09;;;20.53;100.00
49723;BME280;43484;43.608;1.458;2023-07-28T06:51:37;99441.47;;;20.51;100.00
49723;BME280;43484;43.608;1.458;2023-07-28T06:54:04;99449.31;;;20.50;100.00
49723;BME280;43484;43.608;1.458;2023-07-28T06:56:30;99457.69;;;20.67;100.00
49723;BME280;43484;43.608;1.458;2023-07-28T06:58:58;99465.56;;;20.64;100.00
49723;BME280;43484;43.608;1.458;2023-07-28T07:01:41;99469.88;;;20.66;100.00
49723;BME280;43484;43.608;1.458;2023-07-28T07:04:08;99473.97;;;20.79;100.00
49723;BME280;43484;43.608;1.458;2023-07-28T07:06:34;99481.75;;;20.81;100.00
49723;BME280;43484;43.608;1.458;2023-07-28T07:09:01;99488.63;;;20.85;100.00
49723;BME280;43484;43.608;1.458;2023-07-28T07:11:29;99489.34;;;20.94;100.00
49723;BME280;43484;43.608;1.458;2023-07-28T07:13:55;99498.59;;;21.10;100.00
49723;BME280;43484;43.608;1.458;2023-07-28T07:16:23;99508.16;;;21.11;100.00
49723;BME280;43484;43.608;1.458;2023-07-28T07:18:53;99514.28;;;21.09;100.00
49723;BME280;43484;43.608;1.458;2023-07-28T07:21:20;99529.03;;;21.08;100.00
49723;BME280;43484;43.608;1.458;2023-07-28T07:23:46;99532.13;;;21.29;100.00
49723;BME280;43484;43.608;1.458;2023-07-28T07:26:14;99545.28;;;21.23;100.00
49723;BME280;43484;43.608;1.458;2023-07-28T07:28:41;99543.56;;;21.23;100.00
49723;BME280;43484;43.608;1.458;2023-07-28T07:31:14;99554.41;;;21.46;100.00
49723;BME280;43484;43.608;1.458;2023-07-28T07:33:42;99567.16;;;21.61;100.00
49723;BME280;43484;43.608;1.458;2023-07-28T07:36:15;99582.59;;;21.70;100.00
49723;BME280;43484;43.608;1.458;2023-07-28T07:38:43;99596.38;;;21.80;100.00
49723;BME280;43484;43.608;1.458;2023-07-28T07:41:13;99600.50;;;21.90;100.00
49723;BME280;43484;43.608;1.458;2023-07-28T07:43:42;99608.41;;;21.87;100.00
49723;BME280;43484;43.608;1.458;2023-07-28T07:46:08;99616.72;;;22.04;100.00
49723;BME280;43484;43.608;1.458;2023-07-28T07:48:35;99619.41;;;22.01;100.00
49723;BME280;43484;43.608;1.458;2023-07-28T07:51:02;99634.19;;;22.00;100.00
49723;BME280;43484;43.608;1.458;2023-07-28T07:53:28;99627.97;;;22.07;100.00
49723;BME280;43484;43.608;1.458;2023-07-28T07:55:55;99641.50;;;22.26;100.00
49723;BME280;43484;43.608;1.458;2023-07-28T07:58:22;99644.66;;;22.42;100.00
49723;BME280;43484;43.608;1.458;2023-07-28T08:00:48;99655.72;;;22.53;100.00
49723;BME280;43484;43.608;1.458;2023-07-28T08:03:16;99657.06;;;22.72;100.00
49723;BME280;43484;43.608;1.458;2023-07-28T08:05:42;99667.88;;;22.93;100.00
49723;BME280;43484;43.608;1.458;2023-07-28T08:08:09;99664.00;;;23.09;100.00
49723;BME280;43484;43.608;1.458;2023-07-28T08:10:36;99662.09;;;23.17;100.00
49723;BME280;43484;43.608;1.458;2023-07-28T08:13:03;99667.25;;;23.20;100.00
49723;BME280;43484;43.608;1.458;2023-07-28T08:15:30;99668.78;;;23.30;100.00
49723;BME280;43484;43.608;1.458;2023-07-28T08:17:57;99667.59;;;23.42;100.00
49723;BME280;43484;43.608;1.458;2023-07-28T08:20:23;99664.72;;;23.52;100.00
49723;BME280;43484;43.608;1.458;2023-07-28T08:22:50;99673.22;;;23.61;100.00
49723;BME280;43484;43.608;1.458;2023-07-28T08:25:17;99675.28;;;23.48;100.00
49723;BME280;43484;43.608;1.458;2023-07-28T08:27:44;99679.63;;;23.49;100.00
49723;BME280;43484;43.608;1.458;2023-07-28T08:30:11;99684.53;;;23.27;100.00
49723;BME280;43484;43.608;1.458;2023-07-28T08:32:37;99677.41;;;23.34;100.00
49723;BME280;43484;43.608;1.458;2023-07-28T08:35:05;99677.25;;;23.40;100.00
49723;BME280;43484;43.608;1.458;2023-07-28T08:37:31;99668.34;;;23.47;100.00
49723;BME280;43484;43.608;1.458;2023-07-28T08:39:58;99673.75;;;23.39;100.00
49723;BME280;43484;43.608;1.458;2023-07-28T08:42:24;99675.56;;;23.37;100.00
49723;BME280;43484;43.608;1.458;2023-07-28T08:44:51;99671.78;;;23.49;100.00
49723;BME280;43484;43.608;1.458;2023-07-28T08:47:20;99671.13;;;23.39;100.00
49723;BME280;43484;43.608;1.458;2023-07-28T08:49:48;99673.66;;;23.07;100.00
49723;BME280;43484;43.608;1.458;2023-07-28T08:52:16;99675.97;;;23.19;100.00
49723;BME280;43484;43.608;1.458;2023-07-28T08:54:44;99670.59;;;23.25;100.00
49723;BME280;43484;43.608;1.458;2023-07-28T08:57:10;99678.97;;;23.41;100.00
49723;BME280;43484;43.608;1.458;2023-07-28T08:59:37;99680.69;;;23.76;100.00
49723;BME280;43484;43.608;1.458;2023-07-28T09:02:09;99685.59;;;23.54;100.00
49723;BME280;43484;43.608;1.458;2023-07-28T09:04:36;99693.50;;;23.52;100.00
49723;BME280;43484;43.608;1.458;2023-07-28T09:07:04;99688.41;;;23.80;100.00
49723;BME280;43484;43.608;1.458;2023-07-28T09:09:32;99693.03;;;23.35;100.00
49723;BME280;43484;43.608;1.458;2023-07-28T09:11:59;99681.72;;;23.69;100.00
49723;BME280;43484;43.608;1.458;2023-07-28T09:14:26;99687.75;;;23.72;100.00
49723;BME280;43484;43.608;1.458;2023-07-28T09:16:53;99684.09;;;24.11;100.00
49723;BME280;43484;43.608;1.458;2023-07-28T09:19:21;99695.31;;;24.16;100.00
49723;BME280;43484;43.608;1.458;2023-07-28T09:21:59;99685.31;;;23.65;100.00
49723;BME280;43484;43.608;1.458;2023-07-28T09:24:33;99690.50;;;24.00;100.00
49723;BME280;43484;43.608;1.458;2023-07-28T09:27:00;99683.88;;;24.19;100.00
49723;BME280;43484;43.608;1.458;2023-07-28T09:29:27;99685.78;;;24.44;100.00
49723;BME280;43484;43.608;1.458;2023-07-28T09:32:06;99699.41;;;24.25;100.00
49723;BME280;43484;43.608;1.458;2023-07-28T09:34:33;99700.41;;;24.21;100.00
49723;BME280;43484;43.608;1.458;2023-07-28T09:37:00;99697.38;;;24.36;100.00
49723;BME280;43484;43.608;1.458;2023-07-28T09:39:27;99699.75;;;24.43;100.00
49723;BME280;43484;43.608;1.458;2023-07-28T09:41:54;99695.47;;;24.41;100.00
49723;BME280;43484;43.608;1.458;2023-07-28T09:44:24;99700.56;;;24.15;100.00
49723;BME280;43484;43.608;1.458;2023-07-28T09:46:54;99687.81;;;24.33;100.00
49723;BME280;43484;43.608;1.458;2023-07-28T09:49:28;99683.59;;;24.58;100.00
49723;BME280;43484;43.608;1.458;2023-07-28T09:51:58;99683.53;;;24.60;100.00
49723;BME280;43484;43.608;1.458;2023-07-28T09:54:28;99679.72;;;24.42;100.00
49723;BME280;43484;43.608;1.458;2023-07-28T09:56:56;99693.38;;;24.23;100.00
49723;BME280;43484;43.608;1.458;2023-07-28T09:59:32;99691.63;;;24.52;100.00
49723;BME280;43484;43.608;1.458;2023-07-28T10:02:02;99694.22;;;24.54;100.00
49723;BME280;43484;43.608;1.458;2023-07-28T10:04:29;99696.09;;;24.49;100.00
49723;BME280;43484;43.608;1.458;2023-07-28T10:06:57;99689.25;;;24.74;100.00
49723;BME280;43484;43.608;1.458;2023-07-28T10:09:25;99685.94;;;24.69;100.00
49723;BME280;43484;43.608;1.458;2023-07-28T10:11:53;99675.59;;;24.92;100.00
49723;BME280;43484;43.608;1.458;2023-07-28T10:16:58;99677.06;;;25.28;100.00
49723;BME280;43484;43.608;1.458;2023-07-28T10:19:25;99687.72;;;24.96;100.00
49723;BME280;43484;43.608;1.458;2023-07-28T10:22:00;99683.56;;;24.89;100.00
49723;BME280;43484;43.608;1.458;2023-07-28T10:24:52;99672.09;;;24.93;100.00
49723;BME280;43484;43.608;1.458;2023-07-28T10:30:10;99665.81;;;25.25;100.00
49723;BME280;43484;43.608;1.458;2023-07-28T10:32:42;99661.44;;;25.51;100.00
49723;BME280;43484;43.608;1.458;2023-07-28T10:35:23;99651.25;;;25.68;100.00
49723;BME280;43484;43.608;1.458;2023-07-28T10:37:50;99645.66;;;25.77;100.00
49723;BME280;43484;43.608;1.458;2023-07-28T10:40:34;99648.44;;;25.97;100.00
49723;BME280;43484;43.608;1.458;2023-07-28T10:43:03;99653.22;;;25.36;100.00
49723;BME280;43484;43.608;1.458;2023-07-28T10:45:30;99648.06;;;25.33;100.00
49723;BME280;43484;43.608;1.458;2023-07-28T10:47:58;99642.91;;;25.56;100.00
49723;BME280;43484;43.608;1.458;2023-07-28T10:50:31;99634.94;;;25.59;100.00
49723;BME280;43484;43.608;1.458;2023-07-28T10:52:58;99635.50;;;25.68;100.00
49723;BME280;43484;43.608;1.458;2023-07-28T10:55:26;99645.81;;;25.73;100.00
49723;BME280;43484;43.608;1.458;2023-07-28T10:57:54;99640.09;;;25.86;100.00
49723;BME280;43484;43.608;1.458;2023-07-28T11:00:22;99639.56;;;25.77;100.00
49723;BME280;43484;43.608;1.458;2023-07-28T11:02:51;99633.25;;;25.58;100.00
49723;BME280;43484;43.608;1.458;2023-07-28T11:05:24;99627.81;;;25.62;100.00
49723;BME280;43484;43.608;1.458;2023-07-28T11:07:58;99613.84;;;25.86;100.00
49723;BME280;43484;43.608;1.458;2023-07-28T11:10:28;99623.66;;;26.06;100.00
49723;BME280;43484;43.608;1.458;2023-07-28T11:12:57;99633.84;;;25.90;100.00
49723;BME280;43484;43.608;1.458;2023-07-28T11:15:28;99626.59;;;25.97;100.00
49723;BME280;43484;43.608;1.458;2023-07-28T11:17:55;99614.63;;;26.13;100.00
49723;BME280;43484;43.608;1.458;2023-07-28T11:20:24;99611.94;;;26.38;100.00
49723;BME280;43484;43.608;1.458;2023-07-28T11:23:02;99621.44;;;26.42;100.00
49723;BME280;43484;43.608;1.458;2023-07-28T11:25:31;99617.31;;;26.35;100.00
49723;BME280;43484;43.608;1.458;2023-07-28T11:28:01;99615.03;;;26.49;100.00
49723;BME280;43484;43.608;1.458;2023-07-28T11:30:30;99606.63;;;26.62;100.00
49723;BME280;43484;43.608;1.458;2023-07-28T11:32:57;99608.16;;;26.45;100.00
49723;BME280;43484;43.608;1.458;2023-07-28T11:35:24;99595.31;;;26.16;100.00
49723;BME280;43484;43.608;1.458;2023-07-28T11:37:52;99601.22;;;26.44;100.00
49723;BME280;43484;43.608;1.458;2023-07-28T11:40:20;99606.53;;;26.42;100.00
49723;BME280;43484;43.608;1.458;2023-07-28T11:42:49;99608.34;;;26.40;100.00
49723;BME280;43484;43.608;1.458;2023-07-28T11:45:18;99591.31;;;26.50;100.00
49723;BME280;43484;43.608;1.458;2023-07-28T11:50:28;99581.88;;;26.68;100.00
49723;BME280;43484;43.608;1.458;2023-07-28T11:52:58;99595.88;;;26.68;100.00
49723;BME280;43484;43.608;1.458;2023-07-28T11:55:25;99607.25;;;26.69;100.00
49723;BME280;43484;43.608;1.458;2023-07-28T11:57:52;99612.19;;;26.76;100.00
49723;BME280;43484;43.608;1.458;2023-07-28T12:00:28;99602.41;;;26.80;100.00
49723;BME280;43484;43.608;1.458;2023-07-28T12:03:03;99608.06;;;26.71;100.00
49723;BME280;43484;43.608;1.458;2023-07-28T12:05:31;99611.88;;;26.62;100.00
49723;BME280;43484;43.608;1.458;2023-07-28T12:08:00;99610.63;;;26.72;100.00
49723;BME280;43484;43.608;1.458;2023-07-28T12:10:27;99597.34;;;26.97;100.00
49723;BME280;43484;43.608;1.458;2023-07-28T12:13:03;99588.38;;;27.23;100.00
49723;BME280;43484;43.608;1.458;2023-07-28T12:15:34;99595.72;;;27.14;100.00
49723;BME280;43484;43.608;1.458;2023-07-28T12:18:15;99607.88;;;26.52;100.00
49723;BME280;43484;43.608;1.458;2023-07-28T12:20:54;99598.09;;;26.79;100.00
49723;BME280;43484;43.608;1.458;2023-07-28T12:23:22;99597.94;;;27.03;100.00
49723;BME280;43484;43.608;1.458;2023-07-28T12:25:52;99599.41;;;27.10;100.00
49723;BME280;43484;43.608;1.458;2023-07-28T12:28:22;99582.69;;;27.53;100.00
49723;BME280;43484;43.608;1.458;2023-07-28T12:30:49;99574.91;;;27.70;100.00
49723;BME280;43484;43.608;1.458;2023-07-28T12:33:17;99576.09;;;27.63;100.00
49723;BME280;43484;43.608;1.458;2023-07-28T12:35:48;99577.84;;;26.81;100.00
49723;BME280;43484;43.608;1.458;2023-07-28T12:38:16;99570.69;;;27.06;100.00
49723;BME280;43484;43.608;1.458;2023-07-28T12:40:46;99576.72;;;26.86;100.00
49723;BME280;43484;43.608;1.458;2023-07-28T12:43:15;99583.41;;;27.37;100.00
49723;BME280;43484;43.608;1.458;2023-07-28T12:45:45;99598.22;;;27.59;100.00
49723;BME280;43484;43.608;1.458;2023-07-28T12:48:15;99595.38;;;27.64;100.00
49723;BME280;43484;43.608;1.458;2023-07-28T12:50:45;99567.88;;;27.91;100.00
49723;BME280;43484;43.608;1.458;2023-07-28T12:53:12;99549.75;;;27.23;100.00
49723;BME280;43484;43.608;1.458;2023-07-28T12:55:45;99540.53;;;27.13;100.00
49723;BME280;43484;43.608;1.458;2023-07-28T12:58:14;99550.09;;;27.15;100.00
49723;BME280;43484;43.608;1.458;2023-07-28T13:00:44;99548.47;;;27.33;100.00
49723;BME280;43484;43.608;1.458;2023-07-28T13:03:13;99557.03;;;27.38;100.00
49723;BME280;43484;43.608;1.458;2023-07-28T13:05:40;99562.28;;;27.38;100.00
49723;BME280;43484;43.608;1.458;2023-07-28T13:08:10;99566.84;;;27.13;100.00
49723;BME280;43484;43.608;1.458;2023-07-28T13:10:37;99566.13;;;27.31;100.00